Time;durP1;ratioP1;P1;durP2;ratioP2;P2;SDS_P1;SDS_P2;PMS_P1;PMS_P2;Temp;Humidity;BMP_temperature;BMP_pressure;BME280_temperature;BME280_humidity;BME280_pressure;Samples;Min_cycle;Max_cycle;Signal;HPM_P1;HPM_P2
2022/12/05 00:01:41;;;;;;;30.75;18.48;;;;;;;;;;5050163;28;20434;-77
2022/12/05 00:04:08;;;;;;;28.40;17.67;;;;;;;;;;5053757;28;20907;-77
2022/12/05 00:06:35;;;;;;;29.80;18.13;;;;;;;;;;5036520;28;20419;-77
2022/12/05 00:09:02;;;;;;;27.75;17.67;;;;;;;;;;5053147;28;20455;-77
2022/12/05 00:11:30;;;;;;;29.70;17.48;;;;;;;;;;5050096;28;20478;-77
2022/12/05 00:13:57;;;;;;;30.60;18.05;;;;;;;;;;5053292;28;20514;-77
2022/12/05 00:16:24;;;;;;;31.30;18.38;;;;;;;;;;5052310;28;20422;-76
2022/12/05 00:18:50;;;;;;;28.73;17.23;;;;;;;;;;5052873;28;20427;-77
2022/12/05 00:21:21;;;;;;;27.85;17.40;;;;;;;;;;5035762;28;20415;-77
2022/12/05 00:23:47;;;;;;;30.38;18.27;;;;;;;;;;5049871;28;20424;-77
2022/12/05 00:26:13;;;;;;;29.23;17.98;;;;;;;;;;5044403;28;20455;-77
2022/12/05 00:28:39;;;;;;;28.83;17.83;;;;;;;;;;5051567;28;20515;-77
2022/12/05 00:31:07;;;;;;;30.20;17.55;;;;;;;;;;5051638;28;20519;-76
2022/12/05 00:33:33;;;;;;;30.00;17.63;;;;;;;;;;5052642;28;20469;-77
2022/12/05 00:36:04;;;;;;;29.25;17.10;;;;;;;;;;5047610;28;20416;-77
2022/12/05 00:38:30;;;;;;;28.00;16.98;;;;;;;;;;5050748;28;20415;-77
2022/12/05 00:40:56;;;;;;;28.23;17.40;;;;;;;;;;5041799;28;20961;-77
2022/12/05 00:43:22;;;;;;;30.15;17.88;;;;;;;;;;5034679;28;20424;-77
2022/12/05 00:45:48;;;;;;;30.30;18.27;;;;;;;;;;5035377;28;20423;-76
2022/12/05 00:48:14;;;;;;;27.85;17.35;;;;;;;;;;5052271;28;20423;-77
2022/12/05 00:50:40;;;;;;;31.08;18.15;;;;;;;;;;5051816;28;20451;-77
2022/12/05 00:53:06;;;;;;;28.70;18.02;;;;;;;;;;5050156;28;20907;-77
2022/12/05 00:55:35;;;;;;;31.23;18.55;;;;;;;;;;5036949;28;20407;-77
2022/12/05 00:58:02;;;;;;;32.13;19.43;;;;;;;;;;5050151;28;20573;-77
2022/12/05 01:00:28;;;;;;;31.33;19.63;;;;;;;;;;5053014;28;20431;-76
2022/12/05 01:02:55;;;;;;;32.75;19.50;;;;;;;;;;5016977;28;20425;-77
2022/12/05 01:05:21;;;;;;;31.88;20.08;;;;;;;;;;5051366;28;20879;-76
2022/12/05 01:07:47;;;;;;;33.00;19.73;;;;;;;;;;5072635;28;20407;-76
2022/12/05 01:10:13;;;;;;;34.35;21.08;;;;;;;;;;5055561;28;20438;-76
2022/12/05 01:12:39;;;;;;;35.10;20.63;;;;;;;;;;5053756;28;20427;-77
2022/12/05 01:15:05;;;;;;;34.60;20.95;;;;;;;;;;5057274;28;20399;-76
2022/12/05 01:17:31;;;;;;;40.33;21.55;;;;;;;;;;5043712;28;20428;-78
2022/12/05 01:19:57;;;;;;;34.88;21.58;;;;;;;;;;5050898;28;20423;-77
2022/12/05 01:22:23;;;;;;;34.13;21.13;;;;;;;;;;5046424;28;20941;-76
2022/12/05 01:24:50;;;;;;;36.55;20.85;;;;;;;;;;5038492;28;20502;-77
2022/12/05 01:27:16;;;;;;;34.60;20.48;;;;;;;;;;5035451;28;20470;-77
2022/12/05 01:29:42;;;;;;;33.97;20.90;;;;;;;;;;5058081;28;20427;-76
2022/12/05 01:32:08;;;;;;;35.85;21.70;;;;;;;;;;5068458;28;20417;-77
2022/12/05 01:34:34;;;;;;;39.30;22.30;;;;;;;;;;5039418;28;20401;-77
2022/12/05 01:37:00;;;;;;;35.88;21.27;;;;;;;;;;5052354;28;20426;-77
2022/12/05 01:39:26;;;;;;;37.78;22.13;;;;;;;;;;5036972;28;20448;-77
2022/12/05 01:41:52;;;;;;;36.90;22.10;;;;;;;;;;5031590;28;20431;-77
2022/12/05 01:44:18;;;;;;;36.03;21.92;;;;;;;;;;5044240;28;20490;-77
2022/12/05 01:46:49;;;;;;;37.42;22.60;;;;;;;;;;5055446;28;20415;-78
2022/12/05 01:49:35;;;;;;;36.00;20.93;;;;;;;;;;5037257;28;20405;-77
2022/12/05 01:52:04;;;;;;;35.03;20.60;;;;;;;;;;5052950;28;20431;-77
2022/12/05 01:54:30;;;;;;;38.95;22.13;;;;;;;;;;5054648;28;20473;-77
2022/12/05 01:56:58;;;;;;;36.35;21.85;;;;;;;;;;5054891;28;20439;-77
2022/12/05 01:59:25;;;;;;;34.72;20.63;;;;;;;;;;5054892;28;20416;-77
2022/12/05 02:01:51;;;;;;;36.28;21.20;;;;;;;;;;5039844;28;20407;-76
2022/12/05 02:04:18;;;;;;;38.08;21.50;;;;;;;;;;5055642;28;20426;-77
2022/12/05 02:06:44;;;;;;;34.10;20.77;;;;;;;;;;5038525;28;20477;-77
2022/12/05 02:09:12;;;;;;;34.35;20.75;;;;;;;;;;5037537;28;20426;-77
2022/12/05 02:11:46;;;;;;;36.40;20.90;;;;;;;;;;5034060;28;20425;-77
2022/12/05 02:14:15;;;;;;;33.78;20.17;;;;;;;;;;5047830;28;20419;-77
2022/12/05 02:16:47;;;;;;;33.40;19.83;;;;;;;;;;5056253;28;20457;-77
2022/12/05 02:19:19;;;;;;;33.85;19.30;;;;;;;;;;5054371;28;20420;-78
2022/12/05 02:21:57;;;;;;;31.55;19.73;;;;;;;;;;5054299;28;20434;-77
2022/12/05 02:24:42;;;;;;;34.55;19.48;;;;;;;;;;5038307;28;20414;-76
2022/12/05 02:27:08;;;;;;;31.50;19.15;;;;;;;;;;5054688;28;20485;-77
2022/12/05 02:29:40;;;;;;;29.05;17.85;;;;;;;;;;5054615;28;20427;-77
2022/12/05 02:32:10;;;;;;;30.85;19.30;;;;;;;;;;5045550;28;20791;-77
2022/12/05 02:34:55;;;;;;;30.30;18.70;;;;;;;;;;5055426;28;20419;-77
2022/12/05 02:37:27;;;;;;;30.30;18.02;;;;;;;;;;5039754;28;20468;-78
2022/12/05 02:40:03;;;;;;;27.30;17.35;;;;;;;;;;5066834;28;20409;-77
2022/12/05 02:42:45;;;;;;;25.15;15.55;;;;;;;;;;5051582;28;20459;-77
2022/12/05 02:45:13;;;;;;;23.42;15.30;;;;;;;;;;5050818;28;21417;-77
2022/12/05 02:47:42;;;;;;;22.58;14.63;;;;;;;;;;5038501;28;20431;-77
2022/12/05 02:50:09;;;;;;;21.75;14.73;;;;;;;;;;5052094;28;20457;-77
2022/12/05 02:52:36;;;;;;;22.55;14.45;;;;;;;;;;5037955;28;20433;-77
2022/12/05 02:55:05;;;;;;;22.17;14.27;;;;;;;;;;5058683;28;20423;-77
2022/12/05 02:57:33;;;;;;;21.55;13.85;;;;;;;;;;5055326;28;20403;-77
2022/12/05 02:59:59;;;;;;;21.80;14.50;;;;;;;;;;5050597;28;20456;-77
2022/12/05 03:02:33;;;;;;;22.60;13.80;;;;;;;;;;5036716;28;20435;-77
2022/12/05 03:05:07;;;;;;;21.83;13.88;;;;;;;;;;5038814;28;20457;-77
2022/12/05 03:07:33;;;;;;;22.27;14.63;;;;;;;;;;5054891;28;20447;-77
2022/12/05 03:10:02;;;;;;;20.50;13.40;;;;;;;;;;5052018;28;20486;-77
2022/12/05 03:12:30;;;;;;;20.52;13.25;;;;;;;;;;5070163;28;20427;-76
2022/12/05 03:14:56;;;;;;;21.98;13.85;;;;;;;;;;5055224;28;20400;-77
2022/12/05 03:17:24;;;;;;;22.92;13.40;;;;;;;;;;5055249;28;20399;-77
2022/12/05 03:19:55;;;;;;;21.17;13.80;;;;;;;;;;5054155;28;20439;-77
2022/12/05 03:22:27;;;;;;;22.55;13.30;;;;;;;;;;5052512;28;20503;-77
2022/12/05 03:24:54;;;;;;;19.83;12.82;;;;;;;;;;5052430;28;20519;-76
2022/12/05 03:27:29;;;;;;;20.95;12.52;;;;;;;;;;5070841;28;20495;-76
2022/12/05 03:29:55;;;;;;;20.90;12.60;;;;;;;;;;5052431;28;20935;-76
2022/12/05 03:32:21;;;;;;;18.20;12.43;;;;;;;;;;5053115;28;20432;-77
2022/12/05 03:34:56;;;;;;;20.23;12.85;;;;;;;;;;5036486;28;20498;-77
2022/12/05 03:37:32;;;;;;;19.60;12.00;;;;;;;;;;5035301;28;20492;-76
2022/12/05 03:40:04;;;;;;;19.13;11.85;;;;;;;;;;5037561;28;20424;-77
2022/12/05 03:42:33;;;;;;;17.77;12.15;;;;;;;;;;5051436;28;20445;-76
2022/12/05 03:44:59;;;;;;;18.83;11.75;;;;;;;;;;5036050;28;20473;-77
2022/12/05 03:47:35;;;;;;;18.00;12.15;;;;;;;;;;5054723;28;20413;-77
2022/12/05 03:50:05;;;;;;;16.20;10.80;;;;;;;;;;5052327;28;20463;-76
2022/12/05 03:52:35;;;;;;;17.23;11.18;;;;;;;;;;5034723;28;20459;-77
2022/12/05 03:55:05;;;;;;;16.75;10.93;;;;;;;;;;5054425;28;20465;-76
2022/12/05 03:57:34;;;;;;;18.88;11.40;;;;;;;;;;5071092;28;20472;-77
2022/12/05 04:00:06;;;;;;;18.10;11.80;;;;;;;;;;5053644;28;20502;-76
2022/12/05 04:02:32;;;;;;;16.23;10.70;;;;;;;;;;5053293;28;20427;-77
2022/12/05 04:05:01;;;;;;;17.38;11.75;;;;;;;;;;5053328;28;20427;-77
2022/12/05 04:07:28;;;;;;;17.83;11.80;;;;;;;;;;5051576;28;20753;-77
2022/12/05 04:09:56;;;;;;;18.40;11.20;;;;;;;;;;5053089;28;20431;-77
2022/12/05 04:12:24;;;;;;;16.60;10.43;;;;;;;;;;5052098;28;20462;-78
2022/12/05 04:14:52;;;;;;;17.92;11.38;;;;;;;;;;5052942;28;20784;-76
2022/12/05 04:17:30;;;;;;;16.38;10.43;;;;;;;;;;5036818;28;20426;-76
2022/12/05 04:22:45;;;;;;;16.48;10.68;;;;;;;;;;5068618;28;20423;-76
2022/12/05 04:28:34;;;;;;;15.68;10.60;;;5.20;99.90;;;;;;5033896;28;20410;-77
2022/12/05 04:31:06;;;;;;;17.02;10.57;;;;;;;;;;5050062;28;20427;-77
2022/12/05 04:33:38;;;;;;;15.07;10.18;;;;;;;;;;5035796;28;20507;-77
2022/12/05 04:36:05;;;;;;;15.70;9.93;;;;;;;;;;5054374;28;20434;-79
2022/12/05 04:38:34;;;;;;;16.67;9.53;;;;;;;;;;5085675;28;20402;-78
2022/12/05 04:41:00;;;;;;;15.50;9.93;;;;;;;;;;5051241;28;20494;-77
2022/12/05 04:43:27;;;;;;;17.17;9.50;;;;;;;;;;5051627;28;20419;-78
2022/12/05 04:45:54;;;;;;;17.40;10.40;;;;;;;;;;5052567;28;20507;-78
2022/12/05 04:48:21;;;;;;;17.92;10.68;;;;;;;;;;5036313;28;20423;-78
2022/12/05 04:50:48;;;;;;;16.73;10.35;;;;;;;;;;5051931;28;20420;-77
2022/12/05 04:53:16;;;;;;;16.08;10.20;;;;;;;;;;5053133;28;20404;-78
2022/12/05 04:55:46;;;;;;;17.65;11.18;;;;;;;;;;5046100;28;20472;-78
2022/12/05 04:58:14;;;;;;;18.83;11.18;;;;;;;;;;5051270;28;20898;-78
2022/12/05 05:00:56;;;;;;;17.10;10.80;;;;;;;;;;5036788;28;20741;-78
2022/12/05 05:03:35;;;;;;;17.65;11.45;;;;;;;;;;5052877;28;20451;-78
2022/12/05 05:06:02;;;;;;;20.67;11.00;;;;;;;;;;5028077;28;20904;-78
2022/12/05 05:08:28;;;;;;;19.83;11.52;;;;;;;;;;5034398;28;20488;-78
2022/12/05 05:11:04;;;;;;;19.80;11.30;;;;;;;;;;5052592;28;20403;-78
2022/12/05 05:13:30;;;;;;;19.85;11.52;;;;;;;;;;5049583;28;20426;-77
2022/12/05 05:15:56;;;;;;;17.80;11.55;;;;;;;;;;5025240;28;20419;-78
2022/12/05 05:18:22;;;;;;;19.65;11.68;;;;;;;;;;5035485;28;20477;-78
2022/12/05 05:20:48;;;;;;;20.33;11.45;;;;;;;;;;5034877;28;20447;-78
2022/12/05 05:23:14;;;;;;;18.63;11.30;;;;;;;;;;5034508;28;20973;-77
2022/12/05 05:25:40;;;;;;;18.50;10.85;;;;;;;;;;5032798;28;20924;-77
2022/12/05 05:28:06;;;;;;;19.02;11.18;;;;;;;;;;5051377;28;20415;-77
2022/12/05 05:30:32;;;;;;;18.02;11.27;;;;;;;;;;5053184;28;20748;-77
2022/12/05 05:32:59;;;;;;;18.70;10.82;;;;;;;;;;5051029;28;20533;-77
2022/12/05 05:35:25;;;;;;;19.13;11.48;;;;;;;;;;5035345;28;20510;-78
2022/12/05 05:37:51;;;;;;;18.60;11.10;;;;;;;;;;5053417;28;20729;-77
2022/12/05 05:40:18;;;;;;;17.65;11.27;;;;;;;;;;5032791;28;20428;-77
2022/12/05 05:42:45;;;;;;;17.08;10.18;;;;;;;;;;5028415;28;20431;-78
2022/12/05 05:45:12;;;;;;;16.10;10.05;;;;;;;;;;5011584;28;20450;-79
2022/12/05 05:47:39;;;;;;;18.90;10.98;;;;;;;;;;5028148;28;20475;-78
2022/12/05 05:50:05;;;;;;;18.05;10.02;;;;;;;;;;5027311;28;20423;-79
2022/12/05 05:52:35;;;;;;;15.02;9.80;;;;;;;;;;5028925;28;20431;-78
2022/12/05 05:55:01;;;;;;;17.80;10.27;;;;;;;;;;5016948;28;20799;-78
2022/12/05 05:57:27;;;;;;;16.23;10.65;;;;;;;;;;5015910;28;20426;-79
2022/12/05 05:59:53;;;;;;;16.67;9.50;;;;;;;;;;5030395;28;20421;-78
2022/12/05 06:02:20;;;;;;;17.10;10.45;;;;;;;;;;5031274;28;20426;-78
2022/12/05 06:04:46;;;;;;;16.73;9.43;;;;;;;;;;5014949;28;20468;-80
2022/12/05 06:07:12;;;;;;;16.27;9.77;;;;;;;;;;5026440;28;20450;-78
2022/12/05 06:09:38;;;;;;;16.30;10.15;;;;;;;;;;5029936;28;20431;-78
2022/12/05 06:12:04;;;;;;;14.85;9.48;;;;;;;;;;5028033;28;20510;-79
2022/12/05 06:14:30;;;;;;;14.45;9.50;;;;;;;;;;5028062;28;20498;-79
2022/12/05 06:16:56;;;;;;;16.27;10.15;;;;;;;;;;5019223;28;20424;-78
2022/12/05 06:19:23;;;;;;;13.95;9.25;;;;;;;;;;5005369;28;20429;-78
2022/12/05 06:21:49;;;;;;;15.50;10.10;;;;;;;;;;5032898;28;20510;-78
2022/12/05 06:24:16;;;;;;;16.25;9.95;;;;;;;;;;5031998;28;20445;-78
2022/12/05 06:26:42;;;;;;;18.25;10.10;;;;;;;;;;5027536;28;20440;-78
2022/12/05 06:29:08;;;;;;;15.98;9.90;;;;;;;;;;5031439;28;20434;-78
2022/12/05 06:31:34;;;;;;;14.85;9.40;;;;;;;;;;5016360;28;20518;-78
2022/12/05 06:34:01;;;;;;;13.98;9.32;;;;;;;;;;5012292;28;20432;-78
2022/12/05 06:36:28;;;;;;;21.00;9.82;;;;;;;;;;5021969;28;20427;-77
2022/12/05 06:38:55;;;;;;;15.50;9.50;;;;;;;;;;5031292;28;20429;-78
2022/12/05 06:41:23;;;;;;;15.27;9.50;;;;;;;;;;5036231;28;20440;-79
2022/12/05 06:43:51;;;;;;;15.97;9.87;;;;;;;;;;5018327;28;20421;-78
2022/12/05 06:46:17;;;;;;;14.50;9.20;;;;;;;;;;5035197;28;20414;-78
2022/12/05 06:48:43;;;;;;;14.25;9.30;;;;;;;;;;5050756;28;20917;-79
2022/12/05 06:51:10;;;;;;;15.77;9.53;;;;;;;;;;5050406;28;20486;-78
2022/12/05 06:53:37;;;;;;;15.38;9.57;;;;;;;;;;5034780;28;20432;-79
2022/12/05 06:56:04;;;;;;;17.25;10.23;;;;;;;;;;5034507;28;20413;-79
2022/12/05 06:58:30;;;;;;;16.08;9.93;;;;;;;;;;5050528;28;20545;-80
2022/12/05 07:03:43;;;;;;;15.70;9.73;;;;;;;;;;5052415;28;20414;-78
2022/12/05 07:06:09;;;;;;;16.75;9.82;;;;;;;;;;5055979;28;20920;-78
2022/12/05 07:08:35;;;;;;;15.15;9.30;;;;;;;;;;5053818;28;20435;-78
2022/12/05 07:11:01;;;;;;;16.10;9.83;;;;;;;;;;5043395;28;20418;-79
2022/12/05 07:13:27;;;;;;;16.52;10.20;;;;;;;;;;5040179;28;20423;-79
2022/12/05 07:15:53;;;;;;;16.42;9.77;;;;;;;;;;5035634;28;20466;-78
2022/12/05 07:18:19;;;;;;;18.88;10.00;;;;;;;;;;5050081;28;20397;-77
2022/12/05 07:20:55;;;;;;;17.27;9.80;;;;;;;;;;5057969;28;20401;-78
2022/12/05 07:23:21;;;;;;;19.98;10.40;;;;;;;;;;5066740;28;20405;-79
2022/12/05 07:25:47;;;;;;;19.02;10.85;;;;;;;;;;5064205;28;20460;-79
2022/12/05 07:28:13;;;;;;;18.55;10.07;;;;;;;;;;5052388;28;20425;-79
2022/12/05 07:30:39;;;;;;;17.33;9.60;;;;;;;;;;5059216;28;20479;-78
2022/12/05 07:33:05;;;;;;;19.08;10.73;;;;;;;;;;5041330;28;20440;-78
2022/12/05 07:35:31;;;;;;;20.98;10.95;;;;;;;;;;5059837;28;20402;-79
2022/12/05 07:37:57;;;;;;;21.67;11.23;;;;;;;;;;5055686;28;20420;-77
2022/12/05 07:40:23;;;;;;;18.98;10.45;;;;;;;;;;5051805;28;20429;-77
2022/12/05 07:42:52;;;;;;;24.63;11.75;;;;;;;;;;5032960;28;20427;-78
2022/12/05 07:45:18;;;;;;;21.70;11.05;;;;;;;;;;5030892;28;20438;-79
2022/12/05 07:47:44;;;;;;;22.55;11.48;;;;;;;;;;5030917;28;20458;-79
2022/12/05 07:50:10;;;;;;;23.20;12.05;;;;;;;;;;5031769;28;20911;-80
2022/12/05 07:52:36;;;;;;;26.27;12.15;;;;;;;;;;5027827;28;20464;-79
2022/12/05 07:55:03;;;;;;;24.98;11.90;;;;;;;;;;5028682;28;20441;-79
2022/12/05 07:57:29;;;;;;;21.77;11.52;;;;;;;;;;5011939;28;20415;-79
2022/12/05 07:59:56;;;;;;;21.13;11.20;;;;;;;;;;5030057;28;20423;-79
2022/12/05 08:02:22;;;;;;;26.02;12.60;;;;;;;;;;5028095;28;20435;-74
2022/12/05 08:04:48;;;;;;;23.05;11.32;;;;;;;;;;5027128;28;20422;-74
2022/12/05 08:07:14;;;;;;;22.67;11.82;;;;;;;;;;5027017;28;20466;-73
2022/12/05 08:09:40;;;;;;;23.23;11.90;;;;;;;;;;5034726;28;21057;-74
2022/12/05 08:12:07;;;;;;;20.17;11.07;;;;;;;;;;5033287;28;20443;-72
2022/12/05 08:14:33;;;;;;;26.63;11.95;;;;;;;;;;5019465;28;20909;-73
2022/12/05 08:16:59;;;;;;;23.85;11.45;;;;;;;;;;5006666;28;20428;-73
2022/12/05 08:19:25;;;;;;;23.67;12.15;;;;;;;;;;5002763;28;20489;-73
2022/12/05 08:21:53;;;;;;;22.73;11.00;;;;;;;;;;4993732;28;20434;-73
2022/12/05 08:24:19;;;;;;;22.58;10.82;;;;;;;;;;5025608;28;20510;-73
2022/12/05 08:26:45;;;;;;;24.65;11.48;;;;;;;;;;5015524;28;20426;-73
2022/12/05 08:29:12;;;;;;;24.70;10.50;;;;;;;;;;5026785;28;20430;-73
2022/12/05 08:31:40;;;;;;;18.92;10.50;;;;;;;;;;5028668;28;20775;-74
2022/12/05 08:34:06;;;;;;;23.25;11.63;;;;;;;;;;5018773;28;20439;-74
2022/12/05 08:36:33;;;;;;;23.75;11.60;;;;;;;;;;5028218;28;20427;-74
2022/12/05 08:39:01;;;;;;;23.30;11.10;;;;;;;;;;5028160;28;20657;-74
2022/12/05 08:41:28;;;;;;;21.23;11.27;;;;;;;;;;5026701;28;20441;-72
2022/12/05 08:43:56;;;;;;;20.07;10.40;;;;;;;;;;5024808;28;20776;-73
2022/12/05 08:46:22;;;;;;;21.05;10.75;;;;;;;;;;5028372;28;20449;-73
2022/12/05 08:48:48;;;;;;;23.27;11.70;;;;;;;;;;5029150;28;20478;-72
2022/12/05 08:51:14;;;;;;;22.88;10.93;;;;;;;;;;5013298;28;20426;-79
2022/12/05 08:53:40;;;;;;;25.40;11.33;;;;;;;;;;5019516;28;20866;-79
2022/12/05 08:56:09;;;;;;;22.23;10.48;;;;;;;;;;5031685;28;20441;-78
2022/12/05 08:58:35;;;;;;;19.95;10.50;;;;;;;;;;5012136;28;20915;-78
2022/12/05 09:01:05;;;;;;;19.25;9.45;;;;;;;;;;5022968;28;20436;-79
2022/12/05 09:03:31;;;;;;;21.65;9.27;;;;;;;;;;5020273;28;20771;-79
2022/12/05 09:06:13;;;;;;;18.57;9.00;;;;;;;;;;5028335;28;20480;-80
2022/12/05 09:08:40;;;;;;;17.53;9.50;;;;;;;;;;5027607;28;20411;-79
2022/12/05 09:11:07;;;;;;;18.20;9.45;;;;;;;;;;5024543;28;20934;-79
2022/12/05 09:13:33;;;;;;;16.58;9.45;;;;;;;;;;5020561;28;20438;-81
2022/12/05 09:16:04;;;;;;;20.02;9.93;;;;;;;;;;5024826;28;20478;-79
2022/12/05 09:18:30;;;;;;;18.77;9.57;;;;;;;;;;5022536;28;20539;-79
2022/12/05 09:20:56;;;;;;;18.75;10.40;;;;;;;;;;5005801;28;20925;-79
2022/12/05 09:23:22;;;;;;;16.25;9.80;;;;;;;;;;5018994;28;20423;-79
2022/12/05 09:26:00;;;;;;;18.57;10.60;;;;;;;;;;5027603;28;20419;-79
2022/12/05 09:28:27;;;;;;;19.45;10.02;;;;;;;;;;5027833;28;20423;-80
2022/12/05 09:31:00;;;;;;;23.13;10.63;;;;;;;;;;5029717;28;20437;-80
2022/12/05 09:33:27;;;;;;;23.55;10.65;;;;;;;;;;5021294;28;20439;-80
2022/12/05 09:35:53;;;;;;;22.75;11.43;;;;;;;;;;5031639;28;20429;-79
2022/12/05 09:38:20;;;;;;;21.30;11.35;;;;;;;;;;5028803;28;20918;-80
2022/12/05 09:40:46;;;;;;;21.83;10.90;;;;;;;;;;5038550;28;20537;-78
2022/12/05 09:43:22;;;;;;;22.75;11.48;;;;;;;;;;5052801;28;20432;-79
2022/12/05 09:45:57;;;;;;;20.35;10.80;;;;;;;;;;5050401;28;20436;-78
2022/12/05 09:48:23;;;;;;;24.42;11.85;;;;;;;;;;5044681;28;20421;-80
2022/12/05 09:50:56;;;;;;;20.80;11.32;;;;;;;;;;5066635;28;20448;-80
2022/12/05 09:53:34;;;;;;;22.83;11.68;;;;;;;;;;5050535;28;20573;-80
2022/12/05 09:56:00;;;;;;;25.48;12.82;;;;;;;;;;5032842;28;20785;-73
2022/12/05 09:58:26;;;;;;;22.60;12.10;;;;;;;;;;5050355;28;20418;-74
2022/12/05 10:00:58;;;;;;;22.98;11.90;;;;;;;;;;5045319;28;20430;-73
2022/12/05 10:03:24;;;;;;;21.58;12.18;;;;;;;;;;5032618;28;20442;-74
2022/12/05 10:05:53;;;;;;;22.33;12.05;;;;;;;;;;5048119;28;20433;-74
2022/12/05 10:08:19;;;;;;;24.63;13.10;;;;;;;;;;5042755;28;20424;-74
2022/12/05 10:10:45;;;;;;;23.05;11.98;;;;;;;;;;5048057;28;21085;-74
2022/12/05 10:13:18;;;;;;;24.30;13.10;;;;;;;;;;5027262;28;20429;-74
2022/12/05 10:15:55;;;;;;;24.52;12.38;;;;;;;;;;5040949;28;20418;-75
2022/12/05 10:18:38;;;;;;;24.90;13.07;;;;;;;;;;5040256;28;20882;-74
2022/12/05 10:21:17;;;;;;;23.67;12.98;;;;;;;;;;5032383;28;20440;-74
2022/12/05 10:23:52;;;;;;;25.80;12.48;;;;;;;;;;5026538;28;20418;-74
2022/12/05 10:26:19;;;;;;;24.75;12.18;;;;;;;;;;5039298;28;20431;-74
2022/12/05 10:29:04;;;;;;;24.90;12.15;;;;;;;;;;5043651;28;20467;-74
2022/12/05 10:31:34;;;;;;;23.83;12.50;;;;;;;;;;5039168;28;20425;-74
2022/12/05 10:34:06;;;;;;;25.02;12.48;;;;;;;;;;5043362;28;20447;-73
2022/12/05 10:36:32;;;;;;;26.17;11.90;;;;;;;;;;5048201;28;20913;-73
2022/12/05 10:38:58;;;;;;;24.70;12.10;;;;;;;;;;5024373;28;20933;-73
2022/12/05 10:41:24;;;;;;;23.77;11.57;;;;;;;;;;5043626;28;20461;-73
2022/12/05 10:43:51;;;;;;;24.33;12.43;;;;;;;;;;5029724;28;20431;-73
2022/12/05 10:46:17;;;;;;;22.05;12.68;;;;;;;;;;5026497;28;20442;-74
2022/12/05 10:48:43;;;;;;;25.65;12.52;;;;;;;;;;5028580;28;20486;-73
2022/12/05 10:51:17;;;;;;;24.55;12.27;;;;;;;;;;5028124;28;20427;-73
2022/12/05 10:53:45;;;;;;;22.42;12.40;;;;;;;;;;5029261;28;20503;-73
2022/12/05 10:56:30;;;;;;;25.30;12.35;;;;;;;;;;5027740;28;20493;-72
2022/12/05 10:58:57;;;;;;;25.13;12.40;;;;;;;;;;5004906;28;20431;-73
2022/12/05 11:01:24;;;;;;;26.45;12.55;;;;;;;;;;5022936;28;20485;-73
2022/12/05 11:03:56;;;;;;;26.90;12.77;;;;;;;;;;5020932;28;20446;-74
2022/12/05 11:06:27;;;;;;;24.63;12.23;;;;;;;;;;4999458;28;20540;-74
2022/12/05 11:08:55;;;;;;;21.70;11.23;;;;;;;;;;5027709;28;20918;-74
2022/12/05 11:11:22;;;;;;;20.05;10.90;;;;;;;;;;5010039;28;20967;-73
2022/12/05 11:13:56;;;;;;;18.95;10.80;;;;;;;;;;5024520;28;20430;-74
2022/12/05 11:16:23;;;;;;;20.02;10.50;;;;;;;;;;5026347;28;20473;-74
2022/12/05 11:18:49;;;;;;;18.52;10.68;;;;;;;;;;5028038;28;20430;-74
2022/12/05 11:21:18;;;;;;;20.35;10.65;;;;;;;;;;5027731;28;20454;-74
2022/12/05 11:23:44;;;;;;;19.08;10.40;;;;;;;;;;5023009;28;20446;-74
2022/12/05 11:26:17;;;;;;;17.80;9.93;;;;;;;;;;5025021;28;20429;-74
2022/12/05 11:28:43;;;;;;;18.52;10.18;;;;;;;;;;5028689;28;20997;-74
2022/12/05 11:31:12;;;;;;;18.20;10.50;;;;;;;;;;5023570;28;20506;-74
2022/12/05 11:33:38;;;;;;;20.20;10.35;;;;;;;;;;5029183;28;20429;-74
2022/12/05 11:36:18;;;;;;;21.35;10.60;;;;;;;;;;5014351;28;20832;-75
2022/12/05 11:38:44;;;;;;;17.60;9.57;;;;;;;;;;5009113;28;20454;-73
2022/12/05 11:41:22;;;;;;;18.38;10.32;;;;;;;;;;5034064;28;20779;-74
2022/12/05 11:43:51;;;;;;;19.40;9.60;;;;;;;;;;5047100;28;20417;-74
2022/12/05 11:46:29;;;;;;;16.00;9.30;;;;;;;;;;5030522;28;20454;-74
2022/12/05 11:49:07;;;;;;;17.75;9.63;;;;;;;;;;5043378;28;20517;-74
2022/12/05 11:51:39;;;;;;;19.20;9.67;;;;;;;;;;5019495;28;20429;-75
2022/12/05 11:54:05;;;;;;;16.50;8.85;;;;;;;;;;5041902;28;20421;-75
2022/12/05 11:56:34;;;;;;;17.48;9.55;;;;;;;;;;5046193;28;20449;-75
2022/12/05 11:59:35;;;;;;;18.73;9.43;;;5.90;99.90;;;;;;5028764;28;20516;-75
2022/12/05 12:02:04;;;;;;;18.53;9.37;;;;;;;;;;5032752;28;20417;-75
2022/12/05 12:04:49;;;;;;;17.90;8.93;;;6.30;99.90;;;;;;5045239;28;20811;-75
2022/12/05 12:07:18;;;;;;;18.27;9.57;;;;;;;;;;5032124;28;20423;-74
2022/12/05 12:09:50;;;;;;;18.20;11.02;;;;;;;;;;5030051;28;20532;-75
2022/12/05 12:12:26;;;;;;;20.43;10.13;;;;;;;;;;5023439;28;20438;-75
2022/12/05 12:15:06;;;;;;;17.17;9.17;;;;;;;;;;5025399;28;20999;-74
2022/12/05 12:17:52;;;;;;;13.57;8.30;;;;;;;;;;5027965;28;20502;-75
2022/12/05 12:20:18;;;;;;;16.80;9.07;;;;;;;;;;5023652;28;20436;-75
2022/12/05 12:22:44;;;;;;;15.95;8.45;;;;;;;;;;5017910;28;20498;-75
2022/12/05 12:25:13;;;;;;;20.48;8.82;;;;;;;;;;5034071;28;20765;-75
2022/12/05 12:27:48;;;;;;;15.48;8.35;;;;;;;;;;5031068;28;20508;-75
2022/12/05 12:30:17;;;;;;;14.93;8.13;;;;;;;;;;5026513;28;21307;-76
2022/12/05 12:32:49;;;;;;;14.43;7.72;;;;;;;;;;5025589;28;20567;-75
2022/12/05 12:35:45;;;;;;;14.65;7.70;;;;;;;;;;5017216;28;20488;-75
2022/12/05 12:38:29;;;;;;;14.05;7.90;;;;;;;;;;5021675;28;20483;-75
2022/12/05 12:41:05;;;;;;;13.30;7.20;;;;;;;;;;5018079;28;21049;-75
2022/12/05 12:43:56;;;;;;;13.65;6.78;;;;;;;;;;5007909;28;21625;-75
2022/12/05 12:46:47;;;;;;;15.30;7.33;;;;;;;;;;5006087;28;20457;-75
2022/12/05 12:49:13;;;;;;;12.60;7.65;;;;;;;;;;5010684;28;20452;-75
2022/12/05 12:51:44;;;;;;;13.18;7.28;;;;;;;;;;5009899;28;20447;-76
2022/12/05 12:54:29;;;;;;;13.68;7.72;;;;;;;;;;4994723;28;20423;-76
2022/12/05 12:56:58;;;;;;;15.05;7.15;;;;;;;;;;5007203;28;20438;-76
2022/12/05 12:59:38;;;;;;;12.52;7.40;;;;;;;;;;5009234;28;20414;-75
2022/12/05 13:02:04;;;;;;;12.77;6.97;;;;;;;;;;5015645;28;20505;-76
2022/12/05 13:04:39;;;;;;;11.38;6.80;;;;;;;;;;5015615;28;20498;-75
2022/12/05 13:07:14;;;;;;;12.17;6.40;;;;;;;;;;5015637;28;20455;-73
2022/12/05 13:09:46;;;;;;;12.10;6.50;;;;;;;;;;5014297;28;20432;-74
2022/12/05 13:12:15;;;;;;;12.83;7.00;;;;;;;;;;5002282;28;20438;-74
2022/12/05 13:14:47;;;;;;;11.57;6.22;;;;;;;;;;5013123;28;22036;-75
2022/12/05 13:17:16;;;;;;;9.93;6.45;;;;;;;;;;5005554;28;20933;-74
2022/12/05 13:19:44;;;;;;;12.98;6.68;;;;;;;;;;5014045;28;20408;-74
2022/12/05 13:22:11;;;;;;;11.48;7.07;;;;;;;;;;5010074;28;20420;-74
2022/12/05 13:24:38;;;;;;;12.13;6.97;;;;;;;;;;5007499;28;20427;-74
2022/12/05 13:27:09;;;;;;;13.20;7.32;;;;;;;;;;5001712;28;20885;-74
2022/12/05 13:29:46;;;;;;;14.20;7.10;;;;;;;;;;5016398;28;21096;-74
2022/12/05 13:32:28;;;;;;;12.85;7.35;;;;;;;;;;5009493;28;20443;-74
2022/12/05 13:34:55;;;;;;;11.32;7.30;;;;;;;;;;5016326;28;20939;-73
2022/12/05 13:43:12;;;;;;;11.98;7.30;;;;;;;;;;5038463;28;20450;-81
2022/12/05 13:45:39;;;;;;;11.77;7.97;;;;;;;;;;5050225;28;20430;-82
2022/12/05 13:48:11;;;;;;;11.30;7.38;;;;;;;;;;5017217;28;20422;-80
2022/12/05 13:50:42;;;;;;;11.95;7.07;;;;;;;;;;5030931;28;20922;-82
2022/12/05 13:53:32;;;;;;;12.93;8.10;;;6.00;99.90;;;;;;5040390;28;20429;-79
2022/12/05 13:56:00;;;;;;;14.90;7.95;;;;;;;;;;5053022;28;20417;-83
2022/12/05 13:58:37;;;;;;;13.35;7.65;;;;;;;;;;5045756;28;20413;-82
2022/12/05 14:01:25;;;;;;;10.93;6.10;;;6.10;99.90;;;;;;5052889;28;20440;-80
2022/12/05 14:03:54;;;;;;;12.02;6.20;;;;;;;;;;5034856;28;20421;-81
2022/12/05 14:06:38;;;;;;;12.02;6.47;;;;;;;;;;5050656;28;20516;-81
2022/12/05 14:09:24;;;;;;;13.10;6.90;;;;;;;;;;5048656;28;20424;-82
2022/12/05 14:12:11;;;;;;;12.30;5.93;;;5.90;99.90;;;;;;5036036;28;20429;-73
2022/12/05 14:14:56;;;;;;;11.93;6.05;;;;;;;;;;5047636;28;20428;-74
2022/12/05 14:17:23;;;;;;;11.00;6.07;;;;;;;;;;5024680;28;20501;-82
2022/12/05 14:19:58;;;;;;;10.15;5.88;;;;;;;;;;5019962;28;20972;-82
2022/12/05 14:22:32;;;;;;;12.17;6.73;;;;;;;;;;5045957;28;20548;-83
2022/12/05 14:25:16;;;;;;;14.95;7.22;;;5.90;99.90;;;;;;5040571;28;20418;-83
2022/12/05 14:27:48;;;;;;;15.82;8.00;;;;;;;;;;5047145;28;20427;-83
2022/12/05 14:30:17;;;;;;;13.75;7.22;;;;;;;;;;5045827;28;20436;-82
2022/12/05 14:32:43;;;;;;;16.35;8.50;;;;;;;;;;5049687;28;20437;-83
2022/12/05 14:35:14;;;;;;;11.18;6.88;;;;;;;;;;5035296;28;20820;-82
2022/12/05 14:37:51;;;;;;;11.45;5.97;;;;;;;;;;5036669;28;20475;-83
2022/12/05 14:40:32;;;;;;;11.55;6.25;;;;;;;;;;5050572;28;20426;-81
2022/12/05 14:43:03;;;;;;;11.38;6.05;;;;;;;;;;5037398;28;20483;-80
2022/12/05 14:45:40;;;;;;;11.18;5.88;;;;;;;;;;5029672;28;20444;-81
2022/12/05 14:48:25;;;;;;;15.13;9.52;;;;;;;;;;5050691;28;20428;-80